Time;durP1;ratioP1;P1;durP2;ratioP2;P2;SDS_P1;SDS_P2;PMS_P1;PMS_P2;Temp;Humidity;BMP_temperature;BMP_pressure;BME280_temperature;BME280_humidity;BME280_pressure;Samples;Min_cycle;Max_cycle;Signal;HPM_P1;HPM_P2
2021/01/26 00:00:04;;;;;;;19.30;7.78;;;;;;;5.59;64.97;98773.81;5044110;28;20033;-65
2021/01/26 00:02:29;;;;;;;18.55;6.78;;;;;;;5.41;64.50;98771.25;5044302;28;20038;-65
2021/01/26 00:04:54;;;;;;;18.07;7.23;;;;;;;4.89;66.67;98781.59;5044107;28;20032;-68
2021/01/26 00:07:20;;;;;;;17.07;7.07;;;;;;;4.74;68.05;98783.09;5044209;28;20306;-69
2021/01/26 00:09:45;;;;;;;15.10;6.60;;;;;;;4.66;67.96;98786.44;5043852;28;20370;-67
2021/01/26 00:12:11;;;;;;;13.67;5.97;;;;;;;4.86;67.28;98781.06;5059618;28;20380;-65
2021/01/26 00:14:37;;;;;;;15.13;6.50;;;;;;;4.96;66.89;98787.06;5044153;28;20041;-67
2021/01/26 00:17:02;;;;;;;14.87;6.40;;;;;;;5.22;65.84;98788.00;5059184;28;20277;-67
2021/01/26 00:19:28;;;;;;;11.63;5.33;;;;;;;5.33;65.20;98795.63;5043839;28;20361;-65
2021/01/26 00:21:53;;;;;;;12.10;5.83;;;;;;;5.36;65.28;98791.88;5043912;28;20116;-67
2021/01/26 00:24:19;;;;;;;14.52;6.68;;;;;;;5.19;66.04;98769.06;5043710;28;20044;-67
2021/01/26 00:26:44;;;;;;;18.63;6.27;;;;;;;5.24;65.45;98766.84;5043614;28;20275;-65
2021/01/26 00:29:10;;;;;;;16.37;6.60;;;;;;;4.67;67.45;98775.00;5043414;28;20071;-67
2021/01/26 00:31:36;;;;;;;28.50;10.97;;;;;;;4.32;69.30;98767.06;5043519;28;20056;-65
2021/01/26 00:34:02;;;;;;;20.90;9.17;;;;;;;4.20;69.93;98763.00;5043630;28;20025;-65
2021/01/26 00:36:28;;;;;;;24.83;9.37;;;;;;;3.91;71.88;98744.75;5043619;28;20100;-68
2021/01/26 00:38:54;;;;;;;17.27;8.00;;;;;;;3.81;73.42;98756.09;5043742;28;20105;-66
2021/01/26 00:41:19;;;;;;;16.20;7.43;;;;;;;3.95;73.35;98743.50;5043663;28;20025;-67
2021/01/26 00:43:45;;;;;;;17.33;8.30;;;;;;;4.07;73.19;98758.06;5043312;28;20100;-67
2021/01/26 00:46:10;;;;;;;19.00;8.83;;;;;;;4.18;72.99;98734.31;5043396;28;20370;-67
2021/01/26 00:48:36;;;;;;;12.53;6.90;;;;;;;4.29;73.12;98744.59;5043722;28;20080;-65
2021/01/26 00:51:02;;;;;;;17.93;7.60;;;;;;;4.39;73.10;98740.13;5043436;28;20091;-65
2021/01/26 00:53:28;;;;;;;16.73;7.13;;;;;;;4.66;72.28;98731.38;5043652;28;20042;-65
2021/01/26 00:55:53;;;;;;;15.80;6.43;;;;;;;4.75;71.54;98733.09;5043232;28;20097;-66
2021/01/26 00:58:19;;;;;;;13.40;6.20;;;;;;;4.89;71.65;98746.66;5043356;28;20251;-65
2021/01/26 01:00:44;;;;;;;14.10;6.53;;;;;;;5.15;70.71;98747.56;5043300;28;20029;-65
2021/01/26 01:03:10;;;;;;;14.37;5.93;;;;;;;5.09;70.67;98750.78;5043319;28;20045;-65
2021/01/26 01:05:35;;;;;;;15.68;7.15;;;;;;;5.24;70.48;98746.66;5042598;28;20097;-66
2021/01/26 01:08:02;;;;;;;14.87;8.07;;;;;;;5.45;68.81;98727.94;5042892;28;20037;-67
2021/01/26 01:10:30;;;;;;;13.20;6.90;;;;;;;5.39;69.19;98729.38;5042843;28;20107;-67
2021/01/26 01:12:56;;;;;;;11.93;6.67;;;;;;;5.14;70.33;98725.72;5043186;28;20047;-65
2021/01/26 01:15:22;;;;;;;12.93;6.77;;;;;;;5.21;70.22;98715.47;5042929;28;20053;-67
2021/01/26 01:17:47;;;;;;;13.82;6.80;;;;;;;5.33;69.30;98719.50;5042672;28;20059;-65
2021/01/26 01:20:15;;;;;;;15.43;7.93;;;;;;;5.71;67.97;98717.44;5041781;28;20056;-65
2021/01/26 01:22:41;;;;;;;19.48;9.63;;;;;;;5.67;67.95;98714.28;5042973;28;20043;-67
2021/01/26 01:25:07;;;;;;;34.03;15.17;;;;;;;5.55;68.02;98709.47;5058187;28;20218;-66
2021/01/26 01:27:33;;;;;;;21.40;10.68;;;;;;;5.64;67.79;98705.91;5042616;28;20274;-67
2021/01/26 01:29:58;;;;;;;18.47;9.90;;;;;;;5.54;68.30;98702.56;5042796;28;20083;-67
2021/01/26 01:32:23;;;;;;;31.15;12.75;;;;;;;5.49;67.94;98703.03;5042536;28;20082;-65
2021/01/26 01:34:49;;;;;;;39.78;15.23;;;;;;;5.43;68.02;98688.72;5042718;28;20119;-67
2021/01/26 01:37:14;;;;;;;43.20;17.60;;;;;;;5.47;68.23;98691.03;5041560;28;20124;-65
2021/01/26 01:39:40;;;;;;;27.40;12.67;;;;;;;5.55;67.39;98691.91;5042431;28;20060;-67
2021/01/26 01:42:09;;;;;;;26.70;12.63;;;;;;;5.54;67.24;98690.25;5042714;28;20208;-65
2021/01/26 01:44:36;;;;;;;29.50;12.37;;;;;;;5.37;67.86;98689.34;5042863;28;20261;-65
2021/01/26 01:47:04;;;;;;;23.93;11.40;;;;;;;5.61;66.81;98669.44;5041486;28;20091;-65
2021/01/26 01:49:38;;;;;;;22.08;9.80;;;;;;;5.32;67.24;98677.66;5042530;28;20087;-66
2021/01/26 01:52:05;;;;;;;23.08;10.40;;;;;;;5.01;68.36;98677.25;5042877;28;20022;-65
2021/01/26 01:54:39;;;;;;;21.17;10.50;;;;;;;4.88;68.88;98682.91;5042480;28;20079;-65
2021/01/26 01:57:27;;;;;;;25.00;11.32;;;;;;;4.86;69.31;98681.41;5042525;28;20048;-66
2021/01/26 02:00:02;;;;;;;32.83;12.57;;;;;;;4.96;69.31;98676.88;5042376;28;20091;-67
2021/01/26 02:02:29;;;;;;;20.83;10.90;;;;;;;4.93;69.43;98677.19;5042550;28;20045;-65
2021/01/26 02:04:58;;;;;;;33.43;12.50;;;;;;;5.05;68.70;98671.56;5042446;28;20029;-67
2021/01/26 02:07:24;;;;;;;18.90;9.27;;;;;;;5.26;67.31;98644.97;5042616;28;20049;-67
2021/01/26 02:09:49;;;;;;;19.10;8.67;;;;;;;4.70;67.65;98645.38;5041200;28;20227;-66
2021/01/26 02:12:15;;;;;;;19.98;9.25;;;;;;;4.52;69.08;98662.91;5042414;28;20065;-67
2021/01/26 02:14:47;;;;;;;23.60;11.23;;;;;;;4.74;69.43;98658.03;5042307;28;20096;-67
2021/01/26 02:17:39;;;;;;;25.87;11.40;;;;;;;4.63;69.66;98657.44;5057755;28;20079;-65
2021/01/26 02:20:23;;;;;;;25.03;11.10;;;;;;;4.85;69.01;98640.41;5046072;28;20246;-65
2021/01/26 02:23:10;;;;;;;24.77;11.03;;;;;;;4.82;68.78;98634.50;5046386;28;20223;-67
2021/01/26 02:26:08;;;;;;;17.57;9.13;;;;;;;5.12;69.93;98637.66;5044921;28;20543;-65
2021/01/26 02:28:51;;;;;;;20.67;10.33;;;;;;;4.98;69.08;98631.16;5045871;28;20064;-65
2021/01/26 02:31:19;;;;;;;27.05;12.20;;;;;;;4.95;68.61;98620.16;5046011;28;20045;-65
2021/01/26 02:34:13;;;;;;;26.23;11.93;;;;;;;4.79;69.04;98619.06;5045795;28;20068;-67
2021/01/26 02:36:50;;;;;;;23.80;11.77;;;;;;;4.88;68.98;98630.44;5045878;28;20076;-67
2021/01/26 02:39:31;;;;;;;25.77;12.00;;;;;;;5.02;67.82;98627.25;5044432;28;20061;-67
2021/01/26 02:42:16;;;;;;;29.73;12.00;;;;;;;4.91;68.79;98640.63;5045659;28;20043;-67
2021/01/26 02:45:00;;;;;;;27.40;13.20;;;;;;;4.74;69.20;98633.59;5004708;28;20038;-67
2021/01/26 02:47:56;;;;;;;38.83;18.35;;;;;;;4.62;69.50;98634.81;5045661;28;20068;-68
2021/01/26 02:50:38;;;;;;;21.77;9.77;;;;;;;4.22;70.79;98643.97;5045559;28;20080;-65
2021/01/26 02:53:17;;;;;;;21.50;10.10;;;;;;;4.16;70.73;98634.03;5045766;28;20036;-65
2021/01/26 02:55:57;;;;;;;21.43;8.70;;;;;;;4.59;69.41;98640.38;5045462;28;20230;-66
2021/01/26 02:58:33;;;;;;;19.67;8.77;;;;;;;4.60;69.15;98637.59;5045709;28;20064;-66
2021/01/26 03:01:01;;;;;;;21.73;11.00;;;;;;;4.29;70.21;98628.47;5045226;28;20096;-65
2021/01/26 03:03:31;;;;;;;25.00;10.70;;;;;;;4.25;70.71;98627.94;5045664;28;20330;-65
2021/01/26 03:06:02;;;;;;;26.17;10.57;;;;;;;4.44;69.83;98627.78;5045216;28;20029;-67
2021/01/26 03:08:36;;;;;;;24.40;10.37;;;;;;;4.55;69.46;98615.44;5045608;28;20025;-67
2021/01/26 03:11:26;;;;;;;22.43;11.30;;;;;;;4.69;69.05;98618.34;5045574;28;20022;-66
2021/01/26 03:14:01;;;;;;;15.63;8.73;;;;;;;4.89;67.63;98618.97;5045560;28;20215;-67
2021/01/26 03:16:31;;;;;;;21.57;9.53;;;;;;;4.80;67.29;98622.50;5045123;28;20351;-64
2021/01/26 03:19:24;;;;;;;36.37;12.83;;;;;;;4.62;68.16;98616.47;5045202;28;20030;-65
2021/01/26 03:21:54;;;;;;;23.63;10.90;;;;;;;4.65;67.74;98614.38;5044330;28;20087;-65
2021/01/26 03:24:23;;;;;;;24.17;10.30;;;;;;;4.44;67.84;98604.19;5045447;28;20148;-67
2021/01/26 03:26:49;;;;;;;18.40;9.40;;;;;;;4.51;68.07;98621.94;5044724;28;20048;-65
2021/01/26 03:29:28;;;;;;;21.20;9.27;;;;;;;4.56;68.03;98623.16;5044202;28;20421;-65
2021/01/26 03:31:56;;;;;;;24.13;9.77;;;;;;;4.64;67.81;98636.31;5044774;28;20040;-66
2021/01/26 03:34:22;;;;;;;85.57;38.87;;;;;;;4.54;67.90;98637.38;5044666;28;20045;-65
2021/01/26 03:36:48;;;;;;;76.63;30.07;;;;;;;4.32;68.57;98631.63;5044774;28;20029;-65
2021/01/26 03:39:13;;;;;;;60.13;25.53;;;;;;;4.18;70.07;98626.06;5044451;28;20057;-65
2021/01/26 03:41:39;;;;;;;77.07;27.13;;;;;;;4.27;69.39;98627.78;5044750;28;20029;-66
2021/01/26 03:44:08;;;;;;;158.30;38.93;;;;;;;4.37;68.59;98624.13;5059925;28;20321;-67
2021/01/26 03:46:50;;;;;;;127.27;32.83;;;;;;;4.26;69.32;98615.66;5044503;28;20036;-67
2021/01/26 03:49:45;;;;;;;71.70;21.33;;;;;;;4.54;68.50;98622.47;5044318;28;20052;-65
2021/01/26 03:52:29;;;;;;;66.37;16.80;;;;;;;4.57;68.03;98623.97;5044416;28;20096;-65
2021/01/26 03:55:03;;;;;;;57.05;17.08;;;;;;;4.69;66.51;98625.38;5044358;28;20060;-66
2021/01/26 03:57:38;;;;;;;60.77;17.80;;;;;;;4.15;68.53;98625.38;5044356;28;20041;-67
2021/01/26 04:00:08;;;;;;;45.20;14.70;;;;;;;3.97;70.10;98626.31;5044226;28;20033;-69
2021/01/26 04:03:12;;;;;;;32.97;11.23;;;;;;;3.99;69.57;98625.19;5043076;28;20033;-64
2021/01/26 04:05:45;;;;;;;28.20;10.63;;;;;;;4.07;68.97;98627.91;5044148;28;20053;-66
2021/01/26 04:08:20;;;;;;;27.17;9.47;;;;;;;4.09;68.76;98628.56;5044397;28;20037;-66
2021/01/26 04:10:58;;;;;;;24.37;8.37;;;;;;;4.24;68.34;98642.03;5042716;28;20034;-64
2021/01/26 04:13:30;;;;;;;23.53;8.57;;;;;;;4.30;67.07;98623.06;5044402;28;20322;-65
2021/01/26 04:15:59;;;;;;;23.63;8.77;;;;;;;4.30;67.53;98640.59;5043946;28;20066;-64
2021/01/26 04:18:33;;;;;;;25.73;10.70;;;;;;;4.28;66.44;98632.88;5043706;28;20098;-67
2021/01/26 04:20:59;;;;;;;19.80;9.52;;;;;;;4.49;65.84;98640.44;5043798;28;20029;-68
2021/01/26 04:23:26;;;;;;;20.93;9.23;;;;;;;4.34;66.45;98629.66;5044190;28;20061;-68
2021/01/26 04:25:52;;;;;;;19.20;9.33;;;;;;;4.50;65.68;98634.22;5043674;28;20025;-66
2021/01/26 04:28:41;;;;;;;22.77;10.70;;;;;;;4.45;66.17;98639.94;5043447;28;20095;-66
2021/01/26 04:31:09;;;;;;;22.57;11.23;;;;;;;4.43;66.09;98638.44;5043872;28;20258;-64
2021/01/26 04:33:35;;;;;;;39.30;16.27;;;;;;;4.44;64.94;98648.75;5043839;28;20108;-64
2021/01/26 04:36:02;;;;;;;36.50;14.50;;;;;;;4.21;66.25;98631.84;5044098;28;20029;-67
2021/01/26 04:38:28;;;;;;;32.83;15.10;;;;;;;3.66;66.70;98628.41;5043797;28;20041;-67
2021/01/26 04:41:05;;;;;;;31.20;15.30;;;;;;;3.35;69.25;98647.00;5042473;28;20037;-68
2021/01/26 04:43:59;;;;;;;40.50;19.30;;;;;;;3.49;69.25;98623.00;5043425;28;20033;-67
2021/01/26 04:46:44;;;;;;;41.57;18.63;;;;;;;3.56;68.42;98622.41;5043417;28;20040;-68
2021/01/26 04:49:37;;;;;;;36.67;17.30;;;;;;;3.54;69.19;98627.78;5043227;28;20108;-68
2021/01/26 04:52:29;;;;;;;50.20;20.77;;;;;;;3.65;68.49;98629.38;5043498;28;20222;-68
2021/01/26 04:55:22;;;;;;;49.20;19.33;;;;;;;3.51;68.88;98628.06;5043231;28;20039;-68
2021/01/26 04:57:58;;;;;;;48.57;18.77;;;;;;;3.42;69.66;98642.03;5041966;28;20037;-68
2021/01/26 05:00:48;;;;;;;44.73;16.93;;;;;;;3.38;70.19;98636.25;5042993;28;20091;-69
2021/01/26 05:03:16;;;;;;;47.53;19.33;;;;;;;3.75;68.01;98632.78;5043367;28;20077;-66
2021/01/26 05:05:46;;;;;;;81.00;28.63;;;;;;;3.70;67.63;98633.22;5043025;28;20033;-68
2021/01/26 05:08:20;;;;;;;101.47;38.57;;;;;;;3.53;68.49;98628.75;5058613;28;20033;-68
2021/01/26 05:10:50;;;;;;;70.32;27.13;;;;;;;3.15;70.10;98642.81;5042966;28;20036;-67
2021/01/26 05:13:22;;;;;;;66.60;27.73;;;;;;;3.14;70.60;98655.06;5043334;28;20048;-68
2021/01/26 05:15:54;;;;;;;72.00;28.67;;;;;;;3.29;70.87;98638.91;5043185;28;20210;-68
2021/01/26 05:18:31;;;;;;;62.23;28.47;;;;;;;3.38;69.31;98645.91;5042736;28;20329;-69
2021/01/26 05:21:06;;;;;;;61.03;29.23;;;;;;;3.35;70.50;98654.84;5042745;28;20243;-67
2021/01/26 05:23:43;;;;;;;78.50;37.53;;;;;;;3.41;70.09;98638.59;5043225;28;20329;-68
2021/01/26 05:26:12;;;;;;;94.93;39.53;;;;;;;3.51;69.80;98643.78;5042680;28;20052;-68
2021/01/26 05:28:42;;;;;;;75.63;33.57;;;;;;;3.70;69.23;98651.53;5042675;28;20107;-67
2021/01/26 05:31:13;;;;;;;74.17;32.80;;;;;;;3.84;68.87;98640.59;5042732;28;20048;-68
2021/01/26 05:33:38;;;;;;;79.50;33.73;;;;;;;3.87;68.78;98638.63;5041794;28;20100;-68
2021/01/26 05:36:04;;;;;;;75.50;26.17;;;;;;;3.72;69.24;98646.16;5042675;28;20136;-66
2021/01/26 05:38:30;;;;;;;61.97;25.17;;;;;;;3.93;68.49;98640.66;5043166;28;20033;-66
2021/01/26 05:41:04;;;;;;;68.63;26.63;;;;;;;3.85;68.32;98636.16;5042592;28;20029;-65
2021/01/26 05:43:33;;;;;;;76.83;32.20;;;;;;;4.05;67.90;98640.31;5043037;28;20046;-66
2021/01/26 05:46:01;;;;;;;79.87;33.37;;;;;;;3.95;67.87;98628.25;5042568;28;20091;-64
2021/01/26 05:48:28;;;;;;;84.97;34.23;;;;;;;4.22;67.18;98635.28;5042934;28;20037;-64
2021/01/26 05:51:20;;;;;;;84.33;31.70;;;;;;;3.96;66.47;98628.09;5042478;28;20044;-68
2021/01/26 05:53:56;;;;;;;79.23;31.63;;;;;;;3.86;67.71;98637.81;5046736;28;20060;-67
2021/01/26 05:56:22;;;;;;;98.40;33.67;;;;;;;3.77;68.23;98642.13;5062060;28;20034;-67
2021/01/26 05:58:47;;;;;;;86.57;32.00;;;;;;;4.00;67.35;98655.66;5046974;28;20037;-68
2021/01/26 06:01:22;;;;;;;125.93;40.03;;;;;;;3.91;67.40;98653.91;5046646;28;20322;-66
2021/01/26 06:04:04;;;;;;;110.13;41.03;;;;;;;4.08;67.21;98663.59;5045381;28;20033;-64
2021/01/26 06:06:29;;;;;;;89.20;33.83;;;;;;;4.13;66.88;98658.75;5046601;28;20259;-64
2021/01/26 06:08:57;;;;;;;83.37;26.87;;;;;;;3.95;67.39;98643.97;5046499;28;20071;-64
2021/01/26 06:11:29;;;;;;;89.90;29.93;;;;;;;4.25;66.06;98629.75;5046904;28;20214;-66
2021/01/26 06:14:11;;;;;;;87.40;31.40;;;;;;;4.04;66.64;98635.22;5046610;28;20087;-64
2021/01/26 06:16:36;;;;;;;93.90;28.53;;;;;;;4.04;67.17;98645.72;5046278;28;20248;-65
2021/01/26 06:19:03;;;;;;;87.57;29.40;;;;;;;4.32;66.49;98641.28;5045895;28;20105;-66
2021/01/26 06:21:46;;;;;;;112.93;38.53;;;;;;;4.41;65.76;98629.91;5061581;28;20029;-66
2021/01/26 06:24:20;;;;;;;94.83;29.97;;;;;;;4.29;66.03;98631.91;5045971;28;20033;-68
2021/01/26 06:26:58;;;;;;;96.23;35.43;;;;;;;4.26;66.21;98619.09;5061372;28;20052;-66
2021/01/26 06:29:49;;;;;;;102.33;42.97;;;;;;;4.30;66.21;98612.59;5045902;28;20286;-66
2021/01/26 06:32:24;;;;;;;73.80;29.00;;;;;;;4.36;66.34;98619.84;5046023;28;20041;-65
2021/01/26 06:35:14;;;;;;;94.73;31.90;;;;;;;4.36;66.58;98622.47;5045796;28;20083;-67
2021/01/26 06:37:51;;;;;;;111.33;40.10;;;;;;;4.01;67.94;98635.53;5046134;28;20212;-68
2021/01/26 06:40:47;;;;;;;106.03;41.17;;;;;;;3.97;68.63;98652.50;5045536;28;20033;-64
2021/01/26 06:43:27;;;;;;;114.90;38.60;;;;;;;4.33;67.87;98638.50;5046040;28;20033;-64
2021/01/26 06:46:51;;;;;;;110.73;42.57;;;;;;;4.60;66.52;98636.78;5046022;28;20033;-64
2021/01/26 06:49:23;;;;;;;132.87;46.27;;;;;;;4.69;66.12;98639.31;5040909;28;20156;-65
2021/01/26 06:52:00;;;;;;;133.90;48.07;;;;;;;4.71;66.54;98645.22;5045248;28;20040;-65
2021/01/26 06:54:25;;;;;;;127.83;48.43;;;;;;;4.84;65.94;98626.47;5045251;28;20112;-66
2021/01/26 06:57:03;;;;;;;107.13;42.87;;;;;;;4.97;64.74;98636.56;5045206;28;20029;-66
2021/01/26 07:00:13;;;;;;;153.27;76.80;;;;;;;5.15;64.96;98647.84;5045169;28;20044;-66
2021/01/26 07:03:00;;;;;;;91.37;40.37;;;;;;;5.14;65.19;98644.38;5042306;28;20196;-66
2021/01/26 07:05:37;;;;;;;80.90;34.03;;;;;;;5.08;66.04;98644.19;5044340;28;20101;-64
2021/01/26 07:08:47;;;;;;;88.90;32.58;;;;;;;5.21;65.77;98635.94;5045328;28;20037;-64
2021/01/26 07:11:37;;;;;;;96.63;40.07;;;;;;;5.14;65.42;98622.56;5060391;28;20033;-65
2021/01/26 07:14:30;;;;;;;114.60;48.47;;;;;;;5.37;65.06;98612.41;5044760;28;20030;-66
2021/01/26 07:17:00;;;;;;;148.23;60.42;;;;;;;5.02;66.53;98622.00;5044845;28;20041;-66
2021/01/26 07:20:14;;;;;;;123.63;52.75;;;;;;;5.02;67.04;98608.06;5044785;28;20389;-64
2021/01/26 07:22:42;;;;;;;122.80;48.67;;;;;;;5.52;65.04;98616.06;4991102;28;20383;-65
2021/01/26 07:25:24;;;;;;;223.60;67.73;;;;;;;5.36;66.05;98637.81;5044649;28;20054;-64
2021/01/26 07:27:56;;;;;;;129.17;45.73;;;;;;;5.11;67.11;98644.69;5044151;28;20091;-65
2021/01/26 07:30:30;;;;;;;87.20;38.63;;;;;;;5.16;67.39;98636.38;5044392;28;20779;-64
2021/01/26 07:33:16;;;;;;;91.40;42.10;;;;;;;5.32;66.61;98630.41;5044684;28;20039;-64
2021/01/26 07:35:56;;;;;;;98.17;45.47;;;;;;;5.22;66.44;98627.91;5044320;28;20040;-67
2021/01/26 07:38:37;;;;;;;64.47;28.20;;;;;;;5.42;66.22;98618.00;5044704;28;20084;-67
2021/01/26 07:41:05;;;;;;;63.00;25.98;;;;;;;5.37;66.97;98620.28;5044185;28;20048;-64
2021/01/26 07:43:43;;;;;;;58.28;26.48;;;;;;;5.33;67.02;98606.63;5044656;28;20045;-75
2021/01/26 07:46:30;;;;;;;61.00;26.37;;;;;;;5.40;66.55;98594.53;5059628;28;20055;-73
2021/01/26 07:49:01;;;;;;;68.93;31.05;;;;;;;5.67;65.97;98600.53;5044634;28;20196;-72
2021/01/26 07:51:31;;;;;;;66.20;27.90;;;;;;;5.61;65.79;98603.81;5044253;28;20097;-68
2021/01/26 07:54:34;;;;;;;69.90;28.37;;;;;;;5.89;65.45;98615.75;5043965;28;20030;-73
2021/01/26 07:57:03;;;;;;;67.00;27.60;;;;;;;5.72;66.11;98601.72;5044107;28;20072;-71
2021/01/26 07:59:35;;;;;;;84.17;31.43;;;;;;;5.20;67.09;98589.63;5043983;28;20076;-70
2021/01/26 08:02:15;;;;;;;173.50;51.90;;;;;;;4.87;69.39;98593.88;5044056;28;20056;-71
2021/01/26 08:04:42;;;;;;;89.43;33.80;;;;;;;4.94;69.34;98584.41;5059352;28;20055;-73
2021/01/26 08:07:19;;;;;;;94.40;53.33;;;;;;;4.68;71.38;98593.09;5059414;28;20057;-75
2021/01/26 08:09:47;;;;;;;51.37;22.37;;;;;;;4.62;72.07;98598.13;5043877;28;20048;-73
2021/01/26 08:12:19;;;;;;;51.40;20.03;;;;;;;4.93;70.91;98595.88;5043723;28;20101;-74
2021/01/26 08:14:53;;;;;;;53.80;20.00;;;;;;;5.34;69.76;98596.97;5043727;28;20064;-71
2021/01/26 08:17:32;;;;;;;42.20;18.13;;;;;;;5.43;69.88;98593.38;5043498;28;20088;-71
2021/01/26 08:20:19;;;;;;;37.57;16.93;;;;;;;5.69;69.26;98602.03;5043557;28;20041;-70
2021/01/26 08:22:54;;;;;;;39.90;16.90;;;;;;;5.97;68.38;98599.19;5043762;28;20041;-72
2021/01/26 08:25:22;;;;;;;35.97;15.68;;;;;;;5.83;68.77;98618.97;5043743;28;20303;-74
2021/01/26 08:27:50;;;;;;;33.77;15.70;;;;;;;5.83;68.41;98613.72;5042857;28;20042;-76
2021/01/26 08:30:48;;;;;;;41.25;18.58;;;;;;;6.17;68.11;98615.50;5043455;28;20075;-79
2021/01/26 08:33:16;;;;;;;41.57;17.97;;;;;;;6.24;68.89;98630.47;5043782;28;20040;-78
2021/01/26 08:35:44;;;;;;;41.78;16.60;;;;;;;6.38;68.68;98619.34;5058692;28;20029;-77
2021/01/26 08:38:30;;;;;;;43.38;20.48;;;;;;;6.42;68.22;98609.31;5043635;28;20044;-77
2021/01/26 08:40:58;;;;;;;45.60;19.55;;;;;;;6.65;67.39;98612.09;5043053;28;20057;-74
2021/01/26 08:43:48;;;;;;;44.95;17.27;;;;;;;7.01;65.93;98599.41;5058883;28;20021;-76
2021/01/26 08:46:39;;;;;;;47.85;19.17;;;;;;;6.82;66.97;98584.81;5058692;28;20342;-77
2021/01/26 08:49:30;;;;;;;47.00;19.75;;;;;;;6.83;66.45;98583.00;5043204;28;20029;-79
2021/01/26 08:52:21;;;;;;;56.90;24.10;;;;;;;6.91;66.69;98601.41;5058705;28;20029;-75
2021/01/26 08:54:55;;;;;;;54.50;23.33;;;;;;;6.93;66.44;98594.16;5042926;28;20035;-77
2021/01/26 08:57:27;;;;;;;61.45;26.48;;;;;;;7.01;66.94;98594.16;5043076;28;20091;-77
2021/01/26 08:59:58;;;;;;;50.35;20.23;;;;;;;7.11;66.67;98597.41;5058244;28;20051;-80
2021/01/26 09:02:35;;;;;;;51.88;21.95;;;;;;;7.21;66.32;98603.31;5058498;28;20066;-78
2021/01/26 09:05:02;;;;;;;45.40;21.10;;;;;;;7.27;66.41;98591.28;5042944;28;20037;-79
2021/01/26 09:07:46;;;;;;;49.53;20.27;;;;;;;7.30;66.61;98596.25;5043005;28;20484;-78
2021/01/26 09:10:36;;;;;;;43.05;19.63;;;;;;;7.38;66.45;98612.03;5043001;28;20172;-73
2021/01/26 09:13:06;;;;;;;41.72;18.90;;;;;;;7.24;67.18;98604.78;5043013;28;20053;-83
2021/01/26 09:15:36;;;;;;;32.97;16.05;;;;;;;7.23;67.36;98588.19;5042936;28;20093;-82
2021/01/26 09:18:01;;;;;;;35.88;14.60;;;;;;;7.40;67.12;98609.22;5042852;28;20103;-75
2021/01/26 09:20:31;;;;;;;31.95;11.57;;;;;;;7.44;67.23;98595.53;5042559;28;20238;-73
2021/01/26 09:23:04;;;;;;;28.50;12.40;;;;;;;7.59;66.25;98593.84;5042127;28;20088;-75
2021/01/26 09:25:36;;;;;;;35.92;14.55;;;;;;;7.48;67.35;98596.84;5042846;28;20400;-75
2021/01/26 09:28:03;;;;;;;39.00;15.27;;;;;;;7.66;67.40;98599.25;5057334;28;20049;-70
2021/01/26 09:30:29;;;;;;;39.67;15.57;;;;;;;7.48;67.47;98572.31;5042543;28;20040;-75
2021/01/26 09:33:00;;;;;;;62.85;20.48;;;;;;;7.76;66.87;98599.03;5042759;28;20033;-77
2021/01/26 09:35:36;;;;;;;46.05;18.33;;;;;;;7.95;65.53;98611.78;5042580;28;20021;-74
2021/01/26 09:38:35;;;;;;;33.15;14.48;;;;;;;8.22;64.98;98607.84;5042661;28;20044;-79
2021/01/26 09:41:05;;;;;;;30.33;13.68;;;;;;;8.12;64.63;98607.25;5030769;28;20318;-76
2021/01/26 09:43:35;;;;;;;38.22;14.15;;;;;;;7.95;65.56;98607.34;5042433;28;20030;-80
2021/01/26 09:46:04;;;;;;;23.40;10.68;;;;;;;7.71;65.65;98615.38;5042374;28;20040;-78
2021/01/26 09:48:45;;;;;;;27.13;12.98;;;;;;;7.71;66.04;98582.91;5042823;28;20038;-74
2021/01/26 09:51:21;;;;;;;29.45;13.50;;;;;;;7.77;67.25;98596.22;5042273;28;20306;-77
2021/01/26 09:53:57;;;;;;;39.40;16.27;;;;;;;7.75;67.50;98586.84;5042716;28;20199;-77
2021/01/26 09:56:23;;;;;;;34.88;15.00;;;;;;;7.73;66.90;98583.56;5042334;28;20029;-71
2021/01/26 09:58:53;;;;;;;31.38;15.02;;;;;;;7.39;67.21;98562.81;5042749;28;20033;-81
2021/01/26 10:01:20;;;;;;;27.67;13.85;;;;;;;7.72;67.20;98600.38;5057679;28;20116;-78
2021/01/26 10:03:46;;;;;;;35.97;15.50;;;;;;;7.43;67.29;98588.63;5042688;28;20036;-74
2021/01/26 10:06:12;;;;;;;28.23;14.00;;;;;;;7.66;67.70;98597.44;5057650;28;20017;-74
2021/01/26 10:08:38;;;;;;;32.95;14.35;;;;;;;7.68;67.30;98600.72;5042158;28;20271;-74
2021/01/26 10:11:09;;;;;;;33.40;15.98;;;;;;;7.39;67.84;98611.03;5042020;28;20079;-75
2021/01/26 10:13:36;;;;;;;40.22;18.27;;;;;;;7.26;67.81;98589.66;5042470;28;20055;-75
2021/01/26 10:16:23;;;;;;;42.10;18.35;;;;;;;7.35;68.00;98599.19;5057494;28;20052;-79
2021/01/26 10:18:49;;;;;;;40.15;18.50;;;;;;;7.35;68.09;98593.94;5041966;28;20254;-76
2021/01/26 10:21:25;;;;;;;38.88;17.95;;;;;;;7.25;68.30;98593.28;5041923;28;20033;-73
2021/01/26 10:23:59;;;;;;;34.60;16.85;;;;;;;7.32;67.74;98589.00;5042384;28;20044;-76
2021/01/26 10:26:31;;;;;;;32.85;14.57;;;;;;;7.19;68.25;98584.22;5042116;28;20029;-78
2021/01/26 10:29:06;;;;;;;41.72;17.27;;;;;;;7.26;66.89;98598.38;5041809;28;20049;-77
2021/01/26 10:31:46;;;;;;;36.22;16.83;;;;;;;7.17;66.18;98604.66;5042083;28;20026;-76
2021/01/26 10:34:30;;;;;;;28.92;13.25;;;;;;;7.21;66.30;98615.66;5041878;28;20203;-76
2021/01/26 10:36:56;;;;;;;28.40;13.05;;;;;;;7.30;65.44;98614.69;5041976;28;20033;-71
2021/01/26 10:39:26;;;;;;;29.45;14.07;;;;;;;7.33;65.67;98617.78;5042795;28;20029;-74
2021/01/26 10:42:01;;;;;;;34.88;15.18;;;;;;;7.36;65.77;98612.19;5045372;28;20049;-74
2021/01/26 10:44:27;;;;;;;26.15;12.93;;;;;;;7.18;66.17;98618.63;5060882;28;20025;-77
2021/01/26 10:46:54;;;;;;;20.17;10.02;;;;;;;7.07;65.08;98596.13;5045318;28;20361;-76
2021/01/26 10:49:30;;;;;;;27.63;10.75;;;;;;;7.21;64.89;98611.22;5045501;28;20055;-77
2021/01/26 10:51:57;;;;;;;23.92;9.70;;;;;;;7.33;64.60;98606.44;5045633;28;20034;-74
2021/01/26 10:54:23;;;;;;;22.60;10.75;;;;;;;7.13;63.88;98577.00;5045369;28;20290;-77
2021/01/26 10:56:49;;;;;;;24.02;12.02;;;;;;;7.36;63.43;98585.03;5045247;28;20243;-79
2021/01/26 10:59:16;;;;;;;18.98;9.60;;;;;;;7.47;63.85;98594.38;5045048;28;20258;-69
2021/01/26 11:01:43;;;;;;;23.83;10.13;;;;;;;7.54;62.92;98574.28;5045487;28;20052;-78
2021/01/26 11:04:09;;;;;;;22.98;10.23;;;;;;;7.71;63.27;98589.00;5045197;28;20029;-73
2021/01/26 11:06:34;;;;;;;26.67;8.98;;;;;;;7.65;62.99;98590.53;5043785;28;20024;-82
2021/01/26 11:09:00;;;;;;;22.00;8.70;;;;;;;7.57;63.06;98593.19;5044801;28;20025;-82
2021/01/26 11:11:27;;;;;;;21.80;8.32;;;;;;;7.72;62.77;98595.09;5044915;28;20037;-82
2021/01/26 11:13:55;;;;;;;22.10;8.98;;;;;;;7.67;63.68;98582.44;5045226;28;20087;-82
2021/01/26 11:16:22;;;;;;;18.27;8.68;;;;;;;7.68;63.99;98592.00;5045279;28;20246;-77
2021/01/26 11:18:47;;;;;;;18.63;8.43;;;;;;;7.75;63.63;98605.31;5044761;28;20029;-76
2021/01/26 11:21:13;;;;;;;19.08;9.05;;;;;;;8.00;62.69;98602.38;5044932;28;20103;-77
2021/01/26 11:23:39;;;;;;;24.50;10.25;;;;;;;8.01;62.17;98598.75;5045331;28;20029;-82
2021/01/26 11:26:06;;;;;;;25.67;10.23;;;;;;;7.99;62.72;98594.63;5044608;28;20037;-76
2021/01/26 11:28:33;;;;;;;27.25;10.75;;;;;;;8.06;62.56;98594.75;5044674;28;20045;-82
2021/01/26 11:30:59;;;;;;;31.23;12.32;;;;;;;8.12;62.59;98599.34;5060195;28;20028;-76
2021/01/26 11:33:25;;;;;;;26.10;9.98;;;;;;;8.30;61.74;98600.69;5060116;28;20025;-82
2021/01/26 11:35:50;;;;;;;28.35;10.90;;;;;;;8.42;61.92;98609.09;5044512;28;20382;-82
2021/01/26 11:38:15;;;;;;;25.52;11.45;;;;;;;8.59;61.23;98613.25;5044883;28;20103;-80
2021/01/26 11:40:41;;;;;;;20.48;10.27;;;;;;;8.44;62.58;98604.44;5044421;28;20025;-83
2021/01/26 11:43:06;;;;;;;25.60;10.48;;;;;;;8.44;62.90;98603.63;5044012;28;20041;-83
2021/01/26 11:45:35;;;;;;;33.60;10.63;;;;;;;8.63;63.68;98605.78;5043919;28;20032;-76
2021/01/26 11:48:03;;;;;;;21.02;9.63;;;;;;;8.73;62.90;98597.63;5044255;28;20040;-78
2021/01/26 11:50:29;;;;;;;24.92;10.38;;;;;;;8.64;63.81;98610.06;5043829;28;20025;-69
2021/01/26 11:52:54;;;;;;;19.75;9.60;;;;;;;8.59;64.74;98610.59;5044206;28;20038;-71
2021/01/26 11:55:23;;;;;;;21.00;9.70;;;;;;;8.75;64.63;98606.19;5044056;28;20033;-73